Time;durP1;ratioP1;P1;durP2;ratioP2;P2;SDS_P1;SDS_P2;PMS_P1;PMS_P2;Temp;Humidity;BMP_temperature;BMP_pressure;BME280_temperature;BME280_humidity;BME280_pressure;Samples;Min_cycle;Max_cycle;Signal;HPM_P1;HPM_P2
2021/12/24 00:02:12;;;;;;;42.92;18.02;;;6.60;99.90;;;;;;5058458;28;20047;-84
2021/12/24 00:04:37;;;;;;;56.92;19.42;;;6.60;99.90;;;;;;5035492;28;20069;-84
2021/12/24 00:07:03;;;;;;;44.20;17.55;;;6.60;99.90;;;;;;5048261;28;20070;-85
2021/12/24 00:09:32;;;;;;;44.10;16.20;;;6.60;99.90;;;;;;5039392;28;20048;-83
2021/12/24 00:12:01;;;;;;;43.15;17.05;;;6.60;99.90;;;;;;5068499;28;20064;-83
2021/12/24 00:14:30;;;;;;;64.70;19.42;;;6.90;99.90;;;;;;5058831;28;20470;-82
2021/12/24 00:17:00;;;;;;;55.13;16.85;;;6.70;99.90;;;;;;5081118;28;20507;-84
2021/12/24 00:35:45;;;;;;;49.85;17.50;;;6.80;99.90;;;;;;5080952;28;20048;-84
2021/12/24 00:38:11;;;;;;;47.85;16.23;;;6.90;99.90;;;;;;5031923;28;20115;-83
2021/12/24 00:40:44;;;;;;;39.47;17.92;;;6.80;99.90;;;;;;5082272;28;20184;-84
2021/12/24 00:43:11;;;;;;;52.42;19.02;;;6.90;99.90;;;;;;5080346;28;20118;-85
2021/12/24 00:45:42;;;;;;;45.03;17.70;;;6.80;99.90;;;;;;5065190;28;20058;-85
2021/12/24 00:48:10;;;;;;;43.78;16.73;;;7.20;99.90;;;;;;5079687;28;20051;-84
2021/12/24 00:56:09;;;;;;;46.45;16.00;;;7.10;99.90;;;;;;5078568;28;19977;-82
2021/12/24 00:58:36;;;;;;;54.60;17.15;;;7.10;99.90;;;;;;5078356;22;20062;-62
2021/12/24 01:01:07;;;;;;;51.15;16.30;;;7.20;99.90;;;;;;5011702;28;20422;-62
2021/12/24 01:03:32;;;;;;;49.72;17.13;;;7.20;99.90;;;;;;5019839;28;20076;-63
2021/12/24 01:06:01;;;;;;;59.88;16.90;;;7.20;99.90;;;;;;5003028;28;20065;-62
2021/12/24 01:08:27;;;;;;;53.17;17.63;;;7.30;99.90;;;;;;5003230;28;20533;-63
2021/12/24 01:10:58;;;;;;;51.17;16.75;;;7.30;99.90;;;;;;5010183;28;20045;-63
2021/12/24 01:13:26;;;;;;;53.63;17.05;;;7.40;99.90;;;;;;4984897;28;20132;-63
2021/12/24 01:18:42;;;;;;;60.75;18.98;;;7.50;99.90;;;;;;5001552;28;20124;-64
2021/12/24 01:21:22;;;;;;;64.18;18.85;;;7.50;99.90;;;;;;5002830;28;20492;-64
2021/12/24 01:23:55;;;;;;;52.85;18.52;;;7.50;99.90;;;;;;4999440;28;20113;-64
2021/12/24 01:26:36;;;;;;;56.75;17.50;;;7.60;99.90;;;;;;5006194;28;20077;-65
2021/12/24 01:40:24;;;;;;;61.67;19.23;;;7.60;99.90;;;;;;4964685;28;20045;-65
2021/12/24 01:42:51;;;;;;;58.95;20.15;;;7.60;99.90;;;;;;4986322;28;20042;-65
2021/12/24 01:45:20;;;;;;;58.65;19.33;;;7.70;99.90;;;;;;5003056;28;20045;-65
2021/12/24 01:47:46;;;;;;;64.43;20.45;;;7.70;99.90;;;;;;5004148;28;20048;-65
2021/12/24 01:50:14;;;;;;;63.10;21.73;;;7.70;99.90;;;;;;5002988;28;20048;-65
2021/12/24 01:52:40;;;;;;;68.60;23.58;;;7.80;99.90;;;;;;5003637;28;20092;-65
2021/12/24 01:55:08;;;;;;;65.35;21.70;;;7.70;99.90;;;;;;5006747;28;20061;-65
2021/12/24 01:57:34;;;;;;;66.97;22.95;;;7.80;99.90;;;;;;5003739;28;20504;-65
2021/12/24 02:00:03;;;;;;;65.10;22.27;;;7.80;99.90;;;;;;5005013;28;20045;-65
2021/12/24 02:02:30;;;;;;;77.88;24.85;;;7.80;99.90;;;;;;4984127;28;20045;-65
2021/12/24 02:04:56;;;;;;;68.47;24.48;;;7.80;99.90;;;;;;5005073;28;20056;-65
2021/12/24 02:07:22;;;;;;;72.63;24.50;;;7.80;99.90;;;;;;5007056;28;20045;-66
2021/12/24 02:09:47;;;;;;;72.85;23.13;;;7.90;99.90;;;;;;4996131;28;20042;-66
2021/12/24 02:12:15;;;;;;;79.93;25.60;;;7.80;99.90;;;;;;5016350;28;20103;-66
2021/12/24 02:14:43;;;;;;;71.28;24.38;;;7.90;99.90;;;;;;4995584;28;20092;-66
2021/12/24 02:30:38;;;;;;;70.53;22.05;;;7.90;99.90;;;;;;5017843;28;20484;-66
2021/12/24 02:33:05;;;;;;;80.57;23.48;;;7.90;99.90;;;;;;4990992;28;20811;-66
2021/12/24 02:35:32;;;;;;;70.95;21.50;;;7.80;99.90;;;;;;5008406;28;20042;-65
2021/12/24 02:37:59;;;;;;;71.47;23.20;;;7.80;99.90;;;;;;5008508;28;20033;-66
2021/12/24 02:40:26;;;;;;;93.38;25.10;;;7.80;99.90;;;;;;5008391;28;20610;-66
2021/12/24 02:42:54;;;;;;;100.93;26.77;;;7.80;99.90;;;;;;4989831;28;20473;-65
2021/12/24 02:45:22;;;;;;;113.43;27.77;;;7.90;99.90;;;;;;5005840;28;20110;-65
2021/12/24 02:56:06;;;;;;;116.47;28.20;;;7.90;99.90;;;;;;5003886;28;20084;-65
2021/12/24 02:58:46;;;;;;;118.40;28.08;;;7.90;99.90;;;;;;5007531;28;20149;-66
2021/12/24 03:01:15;;;;;;;146.30;27.88;;;7.90;99.90;;;;;;5009970;28;20041;-65
2021/12/24 03:03:42;;;;;;;118.95;27.17;;;8.00;99.90;;;;;;5008982;28;20053;-65
2021/12/24 03:06:08;;;;;;;106.63;26.70;;;7.90;99.90;;;;;;5020519;28;20450;-65
2021/12/24 03:08:34;;;;;;;132.85;29.23;;;7.90;99.90;;;;;;4984943;28;20114;-65
2021/12/24 03:11:00;;;;;;;117.20;29.70;;;8.00;99.90;;;;;;4991656;28;20148;-65
2021/12/24 03:13:27;;;;;;;98.63;26.17;;;8.00;99.90;;;;;;5008872;28;20041;-65
2021/12/24 03:15:57;;;;;;;108.97;28.05;;;8.00;99.90;;;;;;5003756;28;20045;-65
2021/12/24 03:18:31;;;;;;;102.18;28.35;;;8.00;99.90;;;;;;5007944;28;20132;-65
2021/12/24 03:21:07;;;;;;;110.10;27.55;;;8.10;99.90;;;;;;5007510;28;20057;-65
2021/12/24 03:26:03;;;;;;;109.43;30.33;;;8.10;99.90;;;;;;5008908;28;20088;-65
2021/12/24 03:28:28;;;;;;;116.18;28.80;;;8.10;99.90;;;;;;5005280;28;20052;-65
2021/12/24 03:30:54;;;;;;;128.35;29.85;;;8.20;99.90;;;;;;5022696;28;20037;-65
2021/12/24 03:33:20;;;;;;;112.78;29.02;;;8.10;99.90;;;;;;4991103;28;20065;-65
2021/12/24 03:35:46;;;;;;;120.93;28.95;;;8.20;99.90;;;;;;5003060;28;20045;-65
2021/12/24 03:38:11;;;;;;;113.32;27.98;;;8.20;99.90;;;;;;5025798;28;20034;-64
2021/12/24 03:40:37;;;;;;;112.38;29.25;;;8.20;99.90;;;;;;5007040;28;20586;-64
2021/12/24 03:43:03;;;;;;;105.35;29.38;;;8.20;99.90;;;;;;4977296;28;20518;-65
2021/12/24 03:46:17;;;;;;;143.27;35.00;;;8.20;99.90;;;;;;4987038;28;20052;-65
2021/12/24 03:48:23;;;;;;;119.40;32.70;;;8.30;99.90;;;;;;4988124;28;20272;-65
2021/12/24 03:55:58;;;;;;;112.32;34.08;;;8.30;99.90;;;;;;5000116;28;20049;-64
2021/12/24 03:58:24;;;;;;;104.55;34.65;;;8.30;99.90;;;;;;5001530;28;20099;-64
2021/12/24 04:00:51;;;;;;;109.97;33.60;;;8.30;99.90;;;;;;5003133;28;20041;-64
2021/12/24 04:03:17;;;;;;;86.25;32.60;;;8.30;99.90;;;;;;4984267;28;20049;-66
2021/12/24 04:05:44;;;;;;;100.25;35.70;;;8.30;99.90;;;;;;5010514;28;20049;-66
2021/12/24 04:08:10;;;;;;;110.95;36.97;;;8.40;99.90;;;;;;5007858;28;20100;-65
2021/12/24 04:10:41;;;;;;;118.13;36.72;;;8.40;99.90;;;;;;5002032;28;20040;-66
2021/12/24 04:13:08;;;;;;;102.95;35.00;;;8.40;99.90;;;;;;5006650;28;20154;-65
2021/12/24 04:15:36;;;;;;;113.60;35.22;;;8.40;99.90;;;;;;5004362;28;20200;-65
2021/12/24 04:18:11;;;;;;;107.15;34.38;;;8.40;99.90;;;;;;5004010;28;20052;-66
2021/12/24 04:26:06;;;;;;;84.35;31.33;;;8.40;99.90;;;;;;5005564;28;20746;-64
2021/12/24 04:28:32;;;;;;;80.82;29.95;;;8.40;99.90;;;;;;5006900;28;20142;-65
2021/12/24 04:30:59;;;;;;;80.93;29.60;;;8.40;99.90;;;;;;5006199;28;20072;-65
2021/12/24 04:33:31;;;;;;;90.72;29.23;;;8.40;99.90;;;;;;5017952;28;20096;-65
2021/12/24 04:38:58;;;;;;;76.32;29.25;;;8.50;99.90;;;;;;5002687;28;20444;-64
2021/12/24 05:03:29;;;;;;;68.97;28.30;;;8.60;99.90;;;;;;5002514;28;20452;-63
2021/12/24 05:05:55;;;;;;;80.05;29.15;;;8.60;99.90;;;;;;4999682;28;20102;-63
2021/12/24 05:08:28;;;;;;;74.88;27.58;;;8.60;99.90;;;;;;4990100;28;20335;-63
2021/12/24 05:10:54;;;;;;;76.78;26.77;;;8.60;99.90;;;;;;4990782;28;20041;-63
2021/12/24 05:13:22;;;;;;;61.22;24.00;;;8.60;99.90;;;;;;4983327;28;20699;-63
2021/12/24 05:15:52;;;;;;;56.92;23.08;;;8.60;99.90;;;;;;4992105;28;20111;-63
2021/12/24 05:18:37;;;;;;;59.70;20.73;;;8.60;99.90;;;;;;4981586;28;20120;-63
2021/12/24 05:23:46;;;;;;;;;;;8.60;99.90;;;;;;4989973;28;20088;-63
2021/12/24 05:26:14;;;;;;;49.83;18.25;;;8.60;99.90;;;;;;5004057;28;19960;-63
2021/12/24 05:28:40;;;;;;;50.33;16.50;;;8.60;99.90;;;;;;4991936;28;20091;-63
2021/12/24 05:31:06;;;;;;;50.38;16.63;;;8.60;99.90;;;;;;4983936;28;20056;-63
2021/12/24 05:33:32;;;;;;;50.42;16.50;;;8.70;99.90;;;;;;4998909;28;20058;-64
2021/12/24 05:35:57;;;;;;;43.13;15.30;;;8.60;99.90;;;;;;4998836;28;20076;-65
2021/12/24 05:38:23;;;;;;;43.88;16.80;;;8.60;99.90;;;;;;5001668;28;20042;-64
2021/12/24 05:40:49;;;;;;;56.63;14.80;;;8.60;99.90;;;;;;5005292;28;20460;-64
2021/12/24 05:43:15;;;;;;;46.85;15.15;;;8.70;99.90;;;;;;5003814;28;20526;-63
2021/12/24 05:45:41;;;;;;;45.08;14.57;;;8.60;99.90;;;;;;4984850;28;20053;-64
2021/12/24 05:48:06;;;;;;;35.92;13.32;;;8.70;99.90;;;;;;4978094;28;20041;-64
2021/12/24 05:50:32;;;;;;;36.78;12.60;;;8.70;99.90;;;;;;5002771;28;20381;-64
2021/12/24 05:52:58;;;;;;;47.55;15.30;;;8.70;99.90;;;;;;4988507;28;20085;-63
2021/12/24 05:55:24;;;;;;;42.72;13.02;;;8.70;99.90;;;;;;5003070;28;20046;-63
2021/12/24 05:57:50;;;;;;;37.28;12.52;;;8.70;99.90;;;;;;5000685;28;20100;-64
2021/12/24 06:00:16;;;;;;;41.17;12.85;;;8.70;99.90;;;;;;4999506;28;20447;-63
2021/12/24 06:02:42;;;;;;;39.08;12.88;;;8.70;99.90;;;;;;4996574;28;21775;-64
2021/12/24 06:05:08;;;;;;;43.88;14.32;;;8.70;99.90;;;;;;5001749;28;20037;-62
2021/12/24 06:07:34;;;;;;;50.63;12.30;;;8.70;99.90;;;;;;4999432;28;20049;-62
2021/12/24 06:10:00;;;;;;;34.95;12.95;;;8.70;99.90;;;;;;5002520;28;20291;-63
2021/12/24 06:12:25;;;;;;;43.17;13.10;;;8.70;99.90;;;;;;5015670;28;20042;-63
2021/12/24 06:14:54;;;;;;;38.33;13.05;;;8.70;99.90;;;;;;5002703;28;20836;-63
2021/12/24 06:17:23;;;;;;;46.30;13.02;;;8.70;99.90;;;;;;4998783;28;20052;-64
2021/12/24 06:19:49;;;;;;;39.05;11.77;;;8.70;99.90;;;;;;5006747;28;20041;-64
2021/12/24 06:22:15;;;;;;;42.33;12.20;;;8.70;99.90;;;;;;5006887;28;20041;-64
2021/12/24 06:24:41;;;;;;;38.53;12.95;;;8.70;99.90;;;;;;4985869;28;20048;-64
2021/12/24 06:27:07;;;;;;;38.78;12.18;;;8.60;99.90;;;;;;5002196;28;20049;-63
2021/12/24 06:29:33;;;;;;;36.35;11.18;;;8.70;99.90;;;;;;4999526;28;20484;-63
2021/12/24 06:31:59;;;;;;;37.40;11.77;;;8.60;99.90;;;;;;5012552;28;20408;-64
2021/12/24 06:34:30;;;;;;;37.38;13.30;;;8.60;99.90;;;;;;4981951;28;20041;-64
2021/12/24 06:36:56;;;;;;;38.72;11.90;;;8.60;99.90;;;;;;5004158;28;20041;-64
2021/12/24 06:39:22;;;;;;;46.22;13.45;;;8.60;99.90;;;;;;4988935;28;20045;-63
2021/12/24 06:41:48;;;;;;;41.33;12.10;;;8.60;99.90;;;;;;5002084;28;20041;-64
2021/12/24 06:44:14;;;;;;;44.85;12.82;;;8.60;99.90;;;;;;4991242;28;20045;-63
2021/12/24 06:46:41;;;;;;;39.92;12.32;;;8.60;99.90;;;;;;5016713;28;20041;-63
2021/12/24 06:49:09;;;;;;;46.08;13.63;;;8.50;99.90;;;;;;5002017;28;20037;-64
2021/12/24 06:51:35;;;;;;;43.03;12.05;;;8.50;99.90;;;;;;5000221;28;20052;-64
2021/12/24 06:54:01;;;;;;;41.08;12.65;;;8.50;99.90;;;;;;4994221;28;20040;-64
2021/12/24 06:56:27;;;;;;;40.42;11.95;;;8.50;99.90;;;;;;4995961;28;20049;-64
2021/12/24 06:58:53;;;;;;;31.75;10.20;;;8.50;99.90;;;;;;5004519;28;20128;-64
2021/12/24 07:01:18;;;;;;;35.40;10.48;;;8.50;99.90;;;;;;5088627;22;20043;-56
2021/12/24 07:03:44;;;;;;;25.25;9.23;;;8.50;99.90;;;;;;5071691;28;20510;-55
2021/12/24 07:06:10;;;;;;;36.17;9.52;;;8.50;99.90;;;;;;5063544;28;20039;-58
2021/12/24 07:08:37;;;;;;;35.33;9.77;;;8.50;99.90;;;;;;5076177;28;20052;-58
2021/12/24 07:11:03;;;;;;;31.25;9.55;;;8.50;99.90;;;;;;5073187;28;20052;-55
2021/12/24 07:13:29;;;;;;;32.58;9.73;;;8.50;99.90;;;;;;5078445;28;20123;-54
2021/12/24 07:15:55;;;;;;;33.42;8.93;;;8.50;99.90;;;;;;5079931;28;20110;-58
2021/12/24 07:18:21;;;;;;;32.90;9.57;;;8.50;99.90;;;;;;5055849;28;20051;-56
2021/12/24 07:20:46;;;;;;;33.30;8.48;;;8.50;99.90;;;;;;5070056;28;20678;-56
2021/12/24 07:23:12;;;;;;;22.95;8.23;;;8.50;99.90;;;;;;5073053;28;20079;-55
2021/12/24 07:25:38;;;;;;;26.23;7.90;;;8.60;99.90;;;;;;5082175;28;20668;-56
2021/12/24 07:28:04;;;;;;;28.42;8.15;;;8.60;99.90;;;;;;5074872;28;20062;-53
2021/12/24 07:30:31;;;;;;;32.17;8.13;;;8.60;99.90;;;;;;5079171;28;20491;-55
2021/12/24 07:32:57;;;;;;;34.03;7.90;;;8.60;99.90;;;;;;5075274;28;20047;-55
2021/12/24 07:35:23;;;;;;;25.23;7.75;;;8.60;99.90;;;;;;5071669;28;20052;-55
2021/12/24 07:37:49;;;;;;;29.40;8.95;;;8.60;99.90;;;;;;5067102;28;20048;-56
2021/12/24 07:40:16;;;;;;;30.23;8.45;;;8.60;99.90;;;;;;5071818;28;20106;-55
2021/12/24 07:42:43;;;;;;;28.70;7.50;;;8.60;99.90;;;;;;5085872;28;20419;-58
2021/12/24 07:45:10;;;;;;;38.33;8.30;;;8.60;99.90;;;;;;5054488;28;20040;-58
2021/12/24 07:47:40;;;;;;;41.45;8.57;;;8.60;99.90;;;;;;5071838;28;20105;-59
2021/12/24 07:51:57;;;;;;;28.08;8.57;;;8.60;99.90;;;;;;5075497;28;20286;-55
2021/12/24 07:53:09;;;;;;;31.95;8.57;;;8.50;99.90;;;;;;5079270;28;20125;-55
2021/12/24 07:55:35;;;;;;;24.38;8.10;;;8.60;99.90;;;;;;5067911;28;20052;-56
2021/12/24 07:58:01;;;;;;;27.83;8.25;;;8.60;99.90;;;;;;5071048;28;20142;-58
2021/12/24 08:00:29;;;;;;;33.75;8.65;;;8.60;99.90;;;;;;5041590;28;20047;-57
2021/12/24 08:02:58;;;;;;;36.38;9.18;;;8.50;99.90;;;;;;5071651;28;20051;-58
2021/12/24 08:05:25;;;;;;;40.05;9.75;;;8.60;99.90;;;;;;5079881;28;20097;-56
2021/12/24 08:07:52;;;;;;;41.53;10.43;;;8.50;99.90;;;;;;5070002;28;20043;-57
2021/12/24 08:10:20;;;;;;;30.75;10.25;;;8.50;99.90;;;;;;5049894;28;20043;-56
2021/12/24 08:12:46;;;;;;;33.22;8.82;;;8.50;99.90;;;;;;5072538;28;20563;-58
2021/12/24 08:15:12;;;;;;;29.75;8.63;;;8.50;99.90;;;;;;5089560;27;20203;-57
2021/12/24 08:17:38;;;;;;;29.52;10.45;;;8.50;99.90;;;;;;5082652;28;20039;-57
2021/12/24 08:20:05;;;;;;;28.75;10.27;;;8.50;99.90;;;;;;5064885;28;20076;-55
2021/12/24 08:22:32;;;;;;;25.02;8.05;;;8.50;99.90;;;;;;5060269;28;20498;-56
2021/12/24 08:24:57;;;;;;;24.17;9.10;;;8.50;99.90;;;;;;5058721;28;20044;-58
2021/12/24 08:27:23;;;;;;;27.10;8.75;;;8.50;99.90;;;;;;5069968;28;20479;-58
2021/12/24 08:29:49;;;;;;;35.00;9.65;;;8.50;99.90;;;;;;5072898;28;20451;-58
2021/12/24 08:32:15;;;;;;;30.73;11.00;;;8.50;99.90;;;;;;5067302;28;20040;-58
2021/12/24 08:34:42;;;;;;;27.73;13.00;;;8.50;99.90;;;;;;5074756;28;20558;-55
2021/12/24 08:37:08;;;;;;;27.10;10.15;;;8.50;99.90;;;;;;5068792;28;20072;-57
2021/12/24 08:39:34;;;;;;;41.58;13.27;;;8.50;99.90;;;;;;5076380;28;20038;-56
2021/12/24 08:42:01;;;;;;;39.88;11.75;;;8.50;99.90;;;;;;5058465;28;20035;-56
2021/12/24 08:44:30;;;;;;;32.53;10.70;;;8.50;99.90;;;;;;5068856;28;20081;-56
2021/12/24 08:47:01;;;;;;;24.05;9.50;;;8.50;99.90;;;;;;5068434;28;20035;-57
2021/12/24 08:49:27;;;;;;;27.15;9.63;;;8.40;99.90;;;;;;5066035;28;20039;-57
2021/12/24 08:51:54;;;;;;;20.42;10.02;;;8.40;99.90;;;;;;5041642;28;20028;-58
2021/12/24 08:54:21;;;;;;;25.83;7.82;;;8.40;99.90;;;;;;5061945;28;20236;-57
2021/12/24 08:56:48;;;;;;;25.42;8.10;;;8.40;99.90;;;;;;5070024;28;20036;-56
2021/12/24 08:59:14;;;;;;;29.70;10.48;;;8.40;99.90;;;;;;5056556;28;20066;-58
2021/12/24 09:01:44;;;;;;;18.27;8.43;;;8.30;99.90;;;;;;5067092;28;20049;-56
2021/12/24 09:04:10;;;;;;;24.63;8.80;;;8.40;99.90;;;;;;5085247;28;20043;-57
2021/12/24 09:06:36;;;;;;;20.50;8.13;;;8.30;99.90;;;;;;5068124;28;20410;-57
2021/12/24 09:09:06;;;;;;;26.52;9.80;;;8.30;99.90;;;;;;5090794;28;20040;-58
2021/12/24 09:11:36;;;;;;;22.67;9.35;;;8.30;99.90;;;;;;5073104;28;20648;-58
2021/12/24 09:14:02;;;;;;;22.80;8.88;;;8.30;99.90;;;;;;5069965;28;20394;-58
2021/12/24 09:16:27;;;;;;;16.67;6.93;;;8.30;99.90;;;;;;5079745;28;20036;-56
2021/12/24 09:19:00;;;;;;;17.17;6.65;;;8.30;99.90;;;;;;5059989;28;20474;-57
2021/12/24 09:21:27;;;;;;;23.45;7.80;;;8.30;99.90;;;;;;5057053;28;20717;-56
2021/12/24 09:23:54;;;;;;;19.63;7.28;;;8.30;99.90;;;;;;5072884;28;20040;-58
2021/12/24 09:26:27;;;;;;;16.13;6.47;;;8.30;99.90;;;;;;5074278;28;21411;-56
2021/12/24 09:28:53;;;;;;;11.33;5.77;;;8.20;99.90;;;;;;5064700;28;20056;-58
2021/12/24 09:31:19;;;;;;;11.90;6.20;;;8.30;99.90;;;;;;5061073;28;20074;-59
2021/12/24 09:33:46;;;;;;;14.95;6.30;;;8.30;99.90;;;;;;5070317;28;20568;-56
2021/12/24 09:36:12;;;;;;;9.68;4.10;;;8.30;99.90;;;;;;5073084;28;20288;-57
2021/12/24 09:38:38;;;;;;;6.80;4.07;;;8.20;99.90;;;;;;5070909;28;20041;-59
2021/12/24 09:41:04;;;;;;;8.77;3.47;;;8.20;99.90;;;;;;5078503;28;20094;-59
2021/12/24 09:43:29;;;;;;;5.97;3.10;;;8.20;99.90;;;;;;5074925;28;20044;-56
2021/12/24 09:45:55;;;;;;;5.22;3.30;;;8.10;99.90;;;;;;5042190;28;20051;-58
2021/12/24 09:48:21;;;;;;;4.32;2.90;;;8.10;99.90;;;;;;5055324;28;20193;-56
2021/12/24 09:50:47;;;;;;;4.65;2.13;;;8.10;99.90;;;;;;5071839;28;20070;-55
2021/12/24 09:53:13;;;;;;;2.47;1.77;;;7.90;99.90;;;;;;5048503;28;20040;-56
2021/12/24 09:55:39;;;;;;;2.83;1.70;;;7.80;99.90;;;;;;5067942;28;20071;-56
2021/12/24 09:58:05;;;;;;;2.25;1.65;;;7.80;99.90;;;;;;5052325;28;20793;-60
2021/12/24 10:00:31;;;;;;;3.00;1.75;;;7.70;99.90;;;;;;5066927;28;20040;-57
2021/12/24 10:02:59;;;;;;;2.63;1.70;;;7.70;99.90;;;;;;5075323;28;20398;-59
2021/12/24 10:05:30;;;;;;;3.40;1.88;;;7.60;99.90;;;;;;5062594;28;20055;-58
2021/12/24 10:08:08;;;;;;;3.35;1.80;;;7.60;99.90;;;;;;5073049;28;20593;-59
2021/12/24 10:10:41;;;;;;;4.68;2.08;;;7.60;99.90;;;;;;5074139;28;20040;-56
2021/12/24 10:13:31;;;;;;;3.97;1.90;;;7.50;99.90;;;;;;5071283;28;20086;-54
2021/12/24 10:16:01;;;;;;;3.10;2.17;;;7.50;99.90;;;;;;5075716;28;20083;-54
2021/12/24 10:18:32;;;;;;;2.85;1.70;;;7.50;99.90;;;;;;5070714;28;20040;-58
2021/12/24 10:21:00;;;;;;;4.60;2.42;;;7.50;99.90;;;;;;5078793;28;20456;-57
2021/12/24 10:23:47;;;;;;;4.60;1.88;;;7.50;99.90;;;;;;5072398;28;20040;-56
2021/12/24 10:26:25;;;;;;;2.20;1.45;;;7.40;99.90;;;;;;5061488;28;20140;-57
2021/12/24 10:29:06;;;;;;;2.70;1.83;;;7.40;99.90;;;;;;5062235;28;20044;-57
2021/12/24 10:31:39;;;;;;;3.47;1.95;;;7.30;99.90;;;;;;5058921;28;20051;-59
2021/12/24 10:34:14;;;;;;;2.85;1.77;;;7.30;99.90;;;;;;5073249;28;20601;-57
2021/12/24 10:36:52;;;;;;;2.92;1.60;;;7.40;99.90;;;;;;5063343;28;20063;-58
2021/12/24 10:39:22;;;;;;;3.45;2.17;;;7.30;99.90;;;;;;5074135;28;20043;-57
2021/12/24 10:41:50;;;;;;;4.22;2.30;;;7.30;99.90;;;;;;5051604;28;20589;-57
2021/12/24 10:44:24;;;;;;;3.70;2.08;;;7.30;99.90;;;;;;5066806;28;20036;-57
2021/12/24 10:47:09;;;;;;;9.20;2.22;;;7.30;99.90;;;;;;5068750;28;20040;-56
2021/12/24 10:52:31;;;;;;;4.90;2.20;;;7.20;99.90;;;;;;5078294;28;20498;-58
2021/12/24 10:55:08;;;;;;;4.20;2.70;;;7.20;99.90;;;;;;5074589;28;20411;-53
2021/12/24 10:57:40;;;;;;;4.30;2.97;;;7.30;99.90;;;;;;5084440;28;20040;-54
2021/12/24 11:00:26;;;;;;;6.82;4.28;;;7.30;99.90;;;;;;5066948;28;20045;-60
2021/12/24 11:02:55;;;;;;;4.57;2.78;;;7.30;99.90;;;;;;5080786;28;20047;-54
2021/12/24 11:05:29;;;;;;;8.48;4.45;;;7.30;99.90;;;;;;5051254;28;20445;-57
2021/12/24 11:07:57;;;;;;;8.15;5.70;;;7.20;99.90;;;;;;5063009;28;20043;-59
2021/12/24 11:10:30;;;;;;;4.18;3.38;;;7.20;99.90;;;;;;5064873;28;20043;-54
2021/12/24 11:13:08;;;;;;;3.70;2.92;;;7.20;99.90;;;;;;5070310;28;20041;-54
2021/12/24 11:15:41;;;;;;;3.90;3.08;;;7.20;99.90;;;;;;5072758;28;20032;-54
2021/12/24 11:18:28;;;;;;;4.60;2.93;;;7.20;99.90;;;;;;5078321;28;20487;-57
2021/12/24 11:21:12;;;;;;;3.97;2.97;;;7.20;99.90;;;;;;5071147;28;20416;-55
2021/12/24 11:23:40;;;;;;;5.60;3.30;;;7.20;99.90;;;;;;5078271;28;20405;-58
2021/12/24 11:26:12;;;;;;;4.60;3.50;;;7.20;99.90;;;;;;5077201;28;20047;-56
2021/12/24 11:28:39;;;;;;;6.47;3.67;;;7.20;99.90;;;;;;5046904;28;20176;-57
2021/12/24 11:31:13;;;;;;;9.02;5.35;;;7.30;99.90;;;;;;5078604;28;20040;-53
2021/12/24 11:33:42;;;;;;;6.18;4.53;;;7.30;99.90;;;;;;5077731;28;20541;-54
2021/12/24 11:36:11;;;;;;;7.07;4.18;;;7.30;99.90;;;;;;5075979;28;20563;-55
2021/12/24 11:38:40;;;;;;;4.40;3.50;;;7.30;99.90;;;;;;5070571;28;20132;-54
2021/12/24 11:41:11;;;;;;;4.68;3.28;;;7.30;99.90;;;;;;5068498;28;20132;-56
2021/12/24 11:43:39;;;;;;;4.45;3.40;;;7.30;99.90;;;;;;5076691;28;20205;-56
2021/12/24 11:46:07;;;;;;;5.18;3.40;;;7.20;99.90;;;;;;5071893;28;20088;-60
2021/12/24 11:48:34;;;;;;;6.38;3.50;;;7.30;99.90;;;;;;5080343;28;20095;-60
2021/12/24 11:51:04;;;;;;;5.65;3.53;;;7.20;99.90;;;;;;5063554;28;20436;-56
2021/12/24 11:53:33;;;;;;;4.97;3.90;;;7.20;99.90;;;;;;5077201;28;20048;-54
2021/12/24 11:56:07;;;;;;;4.75;3.15;;;7.20;99.90;;;;;;5078425;28;20034;-54
2021/12/24 11:58:40;;;;;;;;;;;7.20;99.90;;;;;;5070642;28;20445;-56
2021/12/24 12:01:06;;;;;;;6.68;3.92;;;7.10;99.90;;;;;;5076473;28;19976;-54
2021/12/24 12:03:49;;;;;;;5.35;3.65;;;7.10;99.90;;;;;;5071195;28;20032;-57
2021/12/24 12:06:20;;;;;;;8.18;5.20;;;7.10;99.90;;;;;;5056156;28;20082;-55
2021/12/24 12:08:57;;;;;;;7.10;4.70;;;7.10;99.90;;;;;;5077047;28;20358;-57
2021/12/24 12:11:25;;;;;;;8.25;5.00;;;7.10;99.90;;;;;;5072291;28;20051;-57
2021/12/24 12:13:56;;;;;;;7.00;4.47;;;7.10;99.90;;;;;;5069401;28;20048;-56
2021/12/24 12:16:39;;;;;;;7.65;4.57;;;7.10;99.90;;;;;;5067972;28;20502;-55
2021/12/24 12:19:49;;;;;;;6.30;4.33;;;7.10;99.90;;;;;;5082328;28;20051;-55
2021/12/24 12:22:28;;;;;;;6.65;3.90;;;7.10;99.90;;;;;;5077201;28;20035;-57
2021/12/24 12:25:00;;;;;;;7.75;5.38;;;7.10;99.90;;;;;;5081442;28;20107;-57
2021/12/24 12:27:45;;;;;;;8.35;5.18;;;7.10;99.90;;;;;;5059633;28;20284;-52
2021/12/24 12:30:17;;;;;;;7.85;5.20;;;7.10;99.90;;;;;;5081088;28;20075;-58
2021/12/24 12:32:43;;;;;;;7.20;4.60;;;7.20;99.90;;;;;;5070296;28;20051;-56
2021/12/24 12:35:10;;;;;;;6.80;4.10;;;7.20;99.90;;;;;;5053651;28;20048;-57
2021/12/24 12:37:52;;;;;;;8.65;5.13;;;7.30;99.90;;;;;;5072467;28;20044;-59
2021/12/24 12:40:17;;;;;;;6.65;3.75;;;7.30;99.90;;;;;;5085476;28;20078;-59
2021/12/24 12:42:50;;;;;;;7.40;4.28;;;7.40;99.90;;;;;;5056749;28;20040;-59
2021/12/24 12:45:20;;;;;;;10.40;4.45;;;7.40;99.90;;;;;;5081897;28;20163;-59
2021/12/24 12:47:54;;;;;;;11.50;4.05;;;7.40;99.90;;;;;;5061657;28;20056;-57
2021/12/24 12:50:22;;;;;;;5.10;3.33;;;7.40;99.90;;;;;;5075218;28;20525;-57
2021/12/24 12:52:48;;;;;;;5.82;3.55;;;7.50;99.90;;;;;;5069740;28;20060;-59
2021/12/24 12:55:32;;;;;;;4.65;3.50;;;7.50;99.90;;;;;;5058666;28;20109;-60
2021/12/24 12:58:21;;;;;;;4.88;3.33;;;7.50;99.90;;;;;;5089431;28;20039;-59
2021/12/24 13:01:05;;;;;;;10.38;5.82;;;7.50;99.90;;;;;;5056361;28;20076;-61
2021/12/24 13:03:33;;;;;;;8.32;6.45;;;7.50;99.90;;;;;;5075789;28;20040;-58
2021/12/24 13:06:08;;;;;;;6.13;4.07;;;7.60;99.90;;;;;;5072046;28;20028;-58
2021/12/24 13:08:36;;;;;;;6.95;4.78;;;7.70;99.90;;;;;;5082329;28;20044;-59
2021/12/24 13:11:11;;;;;;;6.43;4.10;;;7.70;99.90;;;;;;5073750;28;20040;-60
2021/12/24 13:13:52;;;;;;;7.05;4.20;;;7.80;99.90;;;;;;5075220;28;20047;-60
2021/12/24 13:16:21;;;;;;;5.15;2.65;;;7.80;99.90;;;;;;5064436;28;20036;-58
2021/12/24 13:18:58;;;;;;;4.30;1.80;;;7.80;99.90;;;;;;5055667;28;20032;-58
2021/12/24 13:24:13;;;;;;;;;;;7.70;99.90;;;;;;5076768;28;20075;-59
2021/12/24 13:26:39;;;;;;;3.28;1.40;;;7.60;99.90;;;;;;5076759;28;20191;-56
2021/12/24 13:29:22;;;;;;;5.47;2.03;;;7.60;99.90;;;;;;5069668;28;20044;-59
2021/12/24 13:31:54;;;;;;;4.22;2.30;;;7.70;99.90;;;;;;5062195;28;20039;-58
2021/12/24 13:34:22;;;;;;;3.53;1.73;;;7.70;99.90;;;;;;5079046;28;20435;-60
2021/12/24 13:36:48;;;;;;;4.95;1.63;;;7.70;99.90;;;;;;5044971;28;20576;-59
2021/12/24 13:39:24;;;;;;;3.00;1.77;;;7.70;99.90;;;;;;5058314;28;20044;-58
2021/12/24 13:42:03;;;;;;;4.45;1.48;;;7.70;99.90;;;;;;5092181;28;20442;-58
2021/12/24 13:44:32;;;;;;;4.32;1.65;;;7.70;99.90;;;;;;5083310;22;20499;-66
2021/12/24 13:47:01;;;;;;;2.95;1.50;;;7.60;99.90;;;;;;5049237;28;20047;-66
2021/12/24 13:55:28;;;;;;;;;;;7.50;99.90;;;;;;5056017;28;20044;-66
2021/12/24 13:58:00;;;;;;;6.70;1.70;;;7.50;99.90;;;;;;5057986;28;19917;-66
2021/12/24 14:00:28;;;;;;;4.45;2.38;;;7.50;99.90;;;;;;5056417;28;20045;-66
2021/12/24 14:02:59;;;;;;;6.15;2.20;;;7.40;99.90;;;;;;5061775;28;20048;-65
2021/12/24 14:05:26;;;;;;;2.80;1.50;;;7.40;99.90;;;;;;5055961;28;20075;-65
2021/12/24 14:08:08;;;;;;;3.13;1.20;;;7.40;99.90;;;;;;5055474;28;20040;-66
2021/12/24 14:10:34;;;;;;;3.15;1.20;;;7.40;99.90;;;;;;5054137;28;20040;-65
2021/12/24 14:13:10;;;;;;;5.85;1.08;;;7.40;99.90;;;;;;5080021;28;20089;-66
2021/12/24 14:15:50;;;;;;;2.28;1.27;;;7.40;99.90;;;;;;5055584;28;20314;-66
2021/12/24 14:24:11;;;;;;;2.28;0.70;;;7.20;99.90;;;;;;5061397;28;20044;-65
2021/12/24 14:26:47;;;;;;;3.20;0.73;;;7.20;99.90;;;;;;5053353;28;21816;-65
2021/12/24 14:29:22;;;;;;;6.70;1.10;;;7.20;99.90;;;;;;5046956;28;20419;-65
2021/12/24 14:32:00;;;;;;;3.35;0.70;;;7.10;99.90;;;;;;5059531;28;20113;-65
2021/12/24 14:34:33;;;;;;;3.78;0.98;;;7.10;99.90;;;;;;5055930;28;20124;-65
2021/12/24 14:37:11;;;;;;;3.03;0.80;;;7.00;99.90;;;;;;5038866;28;20131;-65
2021/12/24 14:39:46;;;;;;;3.97;0.80;;;7.00;99.90;;;;;;5057250;28;20402;-66
2021/12/24 14:42:25;;;;;;;1.23;0.80;;;7.00;99.90;;;;;;5057002;28;20059;-65
2021/12/24 14:44:54;;;;;;;3.28;0.70;;;7.00;99.90;;;;;;5049956;28;20115;-65
2021/12/24 14:47:25;;;;;;;2.47;0.77;;;7.00;99.90;;;;;;5061792;28;20047;-64
2021/12/24 14:50:00;;;;;;;5.28;0.73;;;7.00;99.90;;;;;;5059494;28;20032;-65
2021/12/24 14:52:26;;;;;;;2.13;1.00;;;7.00;99.90;;;;;;5051202;28;20759;-65
2021/12/24 14:55:14;;;;;;;1.77;0.82;;;6.90;99.90;;;;;;5059860;28;20040;-65